createdAt,value
2017-12-19T00:02:10.095Z,64.40
2017-12-19T00:04:39.354Z,64.60
2017-12-19T00:07:07.814Z,64.60
2017-12-19T00:09:36.454Z,65.10
2017-12-19T00:12:05.014Z,65.40
2017-12-19T00:14:33.414Z,65.70
2017-12-19T00:17:02.574Z,66.70
2017-12-19T00:19:30.894Z,66.70
2017-12-19T00:21:59.854Z,66.90
2017-12-19T00:24:28.356Z,66.90
2017-12-19T00:26:56.514Z,66.80
2017-12-19T00:29:25.514Z,67.20
2017-12-19T00:31:53.899Z,67.20
2017-12-19T00:34:22.234Z,67.10
2017-12-19T00:36:50.534Z,67.30
2017-12-19T00:39:18.794Z,67.00
2017-12-19T00:41:47.094Z,66.70
2017-12-19T00:44:15.474Z,66.40
2017-12-19T00:46:43.614Z,66.40
2017-12-19T00:49:11.816Z,66.70
2017-12-19T00:51:40.193Z,66.70
2017-12-19T00:54:08.893Z,67.30
2017-12-19T00:56:38.193Z,66.50
2017-12-19T00:59:07.394Z,66.30
2017-12-19T01:01:36.414Z,66.20
2017-12-19T01:04:05.035Z,66.10
2017-12-19T01:06:33.454Z,66.50
2017-12-19T01:09:02.834Z,66.00
2017-12-19T01:11:31.314Z,65.90
2017-12-19T01:13:59.794Z,65.70
2017-12-19T01:16:28.595Z,65.90
2017-12-19T01:18:57.875Z,66.00
2017-12-19T01:21:26.195Z,66.00
2017-12-19T01:23:54.534Z,66.00
2017-12-19T01:26:23.714Z,66.00
2017-12-19T01:28:52.194Z,66.00
2017-12-19T01:31:20.454Z,65.90
2017-12-19T01:33:48.774Z,65.60
2017-12-19T01:36:17.034Z,66.20
2017-12-19T01:38:45.294Z,65.70
2017-12-19T01:41:13.594Z,65.40
2017-12-19T01:43:41.954Z,65.30
2017-12-19T01:46:10.254Z,64.90
2017-12-19T01:48:39.238Z,65.20
2017-12-19T01:51:07.733Z,65.20
2017-12-19T01:53:37.014Z,65.40
2017-12-19T01:56:05.354Z,65.40
2017-12-19T01:58:33.873Z,65.50
2017-12-19T02:01:02.153Z,65.60
2017-12-19T02:03:31.554Z,66.40
2017-12-19T02:05:59.774Z,65.70
2017-12-19T02:08:28.294Z,65.60
2017-12-19T02:10:56.554Z,65.70
2017-12-19T02:13:25.054Z,65.70
2017-12-19T02:15:53.477Z,64.70
2017-12-19T02:18:21.733Z,64.90
2017-12-19T02:20:51.334Z,64.90
2017-12-19T02:23:20.614Z,64.30
2017-12-19T02:25:49.374Z,64.30
2017-12-19T02:28:20.474Z,64.30
2017-12-19T02:30:49.873Z,65.50
2017-12-19T02:33:19.155Z,65.40
2017-12-19T02:35:48.634Z,65.60
2017-12-19T02:38:17.324Z,65.60
2017-12-19T02:40:45.994Z,65.60
2017-12-19T02:43:22.394Z,65.80
2017-12-19T02:45:53.174Z,66.30
2017-12-19T02:48:22.014Z,66.30
2017-12-19T02:50:51.494Z,66.30
2017-12-19T02:53:19.974Z,66.30
2017-12-19T02:55:48.694Z,66.50
2017-12-19T02:58:17.973Z,66.30
2017-12-19T03:00:46.334Z,66.20
2017-12-19T03:03:14.733Z,65.90
2017-12-19T03:05:43.014Z,66.10
2017-12-19T03:08:12.113Z,65.90
2017-12-19T03:10:41.354Z,65.20
2017-12-19T03:13:12.634Z,65.10
2017-12-19T03:15:41.034Z,65.40
2017-12-19T03:18:09.715Z,64.30
2017-12-19T03:20:37.874Z,63.40
2017-12-19T03:23:06.314Z,62.40
2017-12-19T03:25:34.534Z,63.00
2017-12-19T03:28:02.693Z,61.70
2017-12-19T03:30:30.975Z,62.00
2017-12-19T03:32:59.353Z,61.80
2017-12-19T03:35:27.614Z,61.00
2017-12-19T03:37:56.314Z,60.80
2017-12-19T03:40:24.954Z,60.40
2017-12-19T03:42:53.494Z,60.40
2017-12-19T03:45:21.954Z,60.40
2017-12-19T03:47:50.754Z,60.30
2017-12-19T03:50:19.014Z,60.50
2017-12-19T03:52:47.493Z,60.80
2017-12-19T03:55:16.094Z,60.40
2017-12-19T03:57:46.074Z,60.10
2017-12-19T04:00:14.994Z,60.10
2017-12-19T04:02:43.223Z,60.50
2017-12-19T04:05:12.074Z,61.00
2017-12-19T04:07:41.114Z,61.60
2017-12-19T04:10:09.935Z,61.60
2017-12-19T04:12:39.294Z,62.50
2017-12-19T04:15:07.814Z,62.50
2017-12-19T04:17:36.294Z,62.60
2017-12-19T04:20:04.794Z,63.50
2017-12-19T04:22:34.014Z,63.30
2017-12-19T04:25:02.554Z,63.20
2017-12-19T04:27:30.895Z,63.50
2017-12-19T04:29:59.293Z,64.00
2017-12-19T04:32:27.794Z,64.10
2017-12-19T04:34:56.073Z,64.00
2017-12-19T04:37:24.402Z,64.30
2017-12-19T04:39:52.853Z,64.50
2017-12-19T04:42:21.910Z,65.10
2017-12-19T04:44:50.394Z,65.10
2017-12-19T04:47:19.595Z,65.70
2017-12-19T04:49:47.974Z,65.60
2017-12-19T04:52:17.293Z,65.70
2017-12-19T04:54:46.354Z,65.70
2017-12-19T04:57:14.754Z,65.70
2017-12-19T04:59:43.014Z,65.10
2017-12-19T05:02:11.714Z,65.10
2017-12-19T05:04:41.853Z,65.30
2017-12-19T05:07:11.055Z,65.10
2017-12-19T05:09:40.414Z,64.80
2017-12-19T05:12:08.794Z,64.80
2017-12-19T05:14:37.594Z,64.90
2017-12-19T05:17:07.814Z,65.60
2017-12-19T05:19:36.294Z,65.70
2017-12-19T05:22:04.757Z,65.50
2017-12-19T05:24:33.054Z,65.60
2017-12-19T05:27:02.335Z,65.50
2017-12-19T05:29:30.704Z,65.50
2017-12-19T05:31:59.114Z,66.10
2017-12-19T05:34:28.089Z,67.10
2017-12-19T05:36:56.370Z,66.40
2017-12-19T05:39:25.850Z,66.60
2017-12-19T05:41:54.350Z,66.60
2017-12-19T05:44:22.993Z,66.70
2017-12-19T05:46:51.730Z,66.80
2017-12-19T05:49:20.110Z,67.10
2017-12-19T05:51:48.754Z,67.30
2017-12-19T05:54:17.270Z,66.40
2017-12-19T05:56:46.890Z,67.60
2017-12-19T05:59:15.970Z,66.60
2017-12-19T06:01:44.770Z,66.50
2017-12-19T06:04:14.190Z,67.10
2017-12-19T06:06:42.830Z,67.00
2017-12-19T06:09:11.297Z,67.10
2017-12-19T06:11:39.810Z,66.10
2017-12-19T06:14:08.389Z,66.40
2017-12-19T06:16:36.970Z,66.30
2017-12-19T06:19:05.590Z,66.20
2017-12-19T06:21:34.186Z,66.60
2017-12-19T06:24:02.618Z,67.30
2017-12-19T06:26:30.930Z,67.20
2017-12-19T06:28:59.470Z,67.20
2017-12-19T06:31:27.950Z,67.80
2017-12-19T06:33:56.610Z,67.60
2017-12-19T06:36:24.910Z,67.00
2017-12-19T06:38:53.390Z,67.30
2017-12-19T06:41:22.370Z,67.40
2017-12-19T06:43:50.549Z,67.50
2017-12-19T06:46:18.750Z,67.80
2017-12-19T06:48:47.950Z,68.30
2017-12-19T06:51:17.332Z,68.90
2017-12-19T06:53:46.617Z,69.00
2017-12-19T06:56:15.131Z,68.90
2017-12-19T06:58:44.510Z,69.50
2017-12-19T07:01:12.810Z,69.50
2017-12-19T07:03:41.810Z,70.00
2017-12-19T07:06:10.053Z,70.00
2017-12-19T07:08:38.430Z,69.70
2017-12-19T07:11:06.970Z,70.20
2017-12-19T07:13:35.610Z,70.20
2017-12-19T07:16:05.140Z,69.90
2017-12-19T07:18:33.170Z,69.90
2017-12-19T07:21:01.909Z,70.80
2017-12-19T07:23:30.809Z,70.60
2017-12-19T07:25:59.329Z,70.30
2017-12-19T07:28:27.689Z,70.70
2017-12-19T07:30:55.851Z,70.40
2017-12-19T07:33:24.470Z,70.20
2017-12-19T07:35:53.511Z,69.80
2017-12-19T07:38:22.089Z,69.80
2017-12-19T07:40:50.711Z,69.70
2017-12-19T07:43:19.308Z,69.50
2017-12-19T07:45:47.670Z,69.70
2017-12-19T07:48:15.969Z,69.90
2017-12-19T07:50:45.009Z,70.50
2017-12-19T07:53:13.328Z,70.50
2017-12-19T07:55:41.431Z,69.90
2017-12-19T07:58:09.769Z,69.50
2017-12-19T08:00:38.149Z,69.90
2017-12-19T08:03:06.416Z,70.70
2017-12-19T08:05:34.729Z,71.00
2017-12-19T08:08:03.895Z,70.80
2017-12-19T08:10:32.069Z,70.80
2017-12-19T08:13:00.229Z,89.00
2017-12-19T08:15:28.693Z,70.90
2017-12-19T08:17:57.009Z,67.20
2017-12-19T08:20:26.110Z,69.60
2017-12-19T08:22:55.429Z,69.30
2017-12-19T08:25:23.788Z,69.30
2017-12-19T08:27:53.169Z,70.80
2017-12-19T08:30:21.788Z,70.80
2017-12-19T08:32:50.350Z,71.30
2017-12-19T08:35:19.410Z,71.80
2017-12-19T08:37:47.929Z,71.80
2017-12-19T08:40:17.009Z,71.20
2017-12-19T08:42:46.089Z,71.70
2017-12-19T08:45:14.290Z,71.70
2017-12-19T08:47:43.209Z,72.40
2017-12-19T08:50:11.549Z,72.30
2017-12-19T08:52:40.128Z,71.80
2017-12-19T08:55:08.789Z,72.00
2017-12-19T08:57:37.092Z,72.20
2017-12-19T09:00:05.470Z,72.30
2017-12-19T09:02:33.617Z,72.20
2017-12-19T09:05:02.017Z,72.80
2017-12-19T09:07:30.491Z,72.30
2017-12-19T09:09:58.792Z,72.30
2017-12-19T09:12:27.871Z,72.80
2017-12-19T09:14:56.853Z,72.50
2017-12-19T09:17:25.420Z,72.50
2017-12-19T09:19:53.697Z,72.00
2017-12-19T09:22:22.332Z,72.50
2017-12-19T09:24:50.371Z,72.60
2017-12-19T09:27:18.532Z,72.20
2017-12-19T09:29:47.011Z,72.20
2017-12-19T09:32:15.551Z,71.90
2017-12-19T09:34:43.771Z,71.90
2017-12-19T09:37:11.851Z,72.10
2017-12-19T09:39:40.231Z,71.60
2017-12-19T09:42:08.412Z,71.90
2017-12-19T09:44:36.772Z,72.20
2017-12-19T09:47:05.051Z,71.10
2017-12-19T09:49:33.351Z,71.70
2017-12-19T09:52:02.431Z,70.70
2017-12-19T09:54:31.296Z,70.70
2017-12-19T09:56:59.405Z,70.70
2017-12-19T09:59:28.785Z,71.10
2017-12-19T10:01:58.791Z,71.00
2017-12-19T10:04:27.351Z,71.00
2017-12-19T10:06:55.891Z,70.50
2017-12-19T10:09:25.131Z,71.80
2017-12-19T10:11:53.792Z,71.80
2017-12-19T10:14:22.212Z,71.10
2017-12-19T10:16:50.711Z,71.00
2017-12-19T10:19:19.172Z,70.80
2017-12-19T10:21:47.871Z,70.80
2017-12-19T10:24:16.292Z,70.70
2017-12-19T10:26:44.611Z,70.30
2017-12-19T10:29:13.111Z,70.40
2017-12-19T10:31:41.331Z,70.90
2017-12-19T10:34:09.772Z,71.40
2017-12-19T10:36:38.939Z,70.50
2017-12-19T10:39:07.180Z,70.50
2017-12-19T10:41:35.398Z,70.30
2017-12-19T10:44:03.679Z,70.20
2017-12-19T10:46:31.838Z,70.50
2017-12-19T10:49:00.438Z,70.40
2017-12-19T10:51:29.020Z,70.30
2017-12-19T10:53:57.536Z,70.60
2017-12-19T10:56:25.839Z,70.10
2017-12-19T10:58:54.279Z,70.00
2017-12-19T11:01:23.539Z,70.00
2017-12-19T11:03:52.899Z,70.00
2017-12-19T11:06:21.339Z,70.30
2017-12-19T11:08:50.739Z,69.70
2017-12-19T11:11:19.419Z,69.70
2017-12-19T11:13:47.700Z,69.20
2017-12-19T11:16:16.979Z,69.90
2017-12-19T11:18:45.319Z,69.90
2017-12-19T11:21:14.059Z,69.60
2017-12-19T11:23:42.319Z,69.60
2017-12-19T11:26:10.818Z,69.20
2017-12-19T11:28:40.098Z,69.40
2017-12-19T11:31:08.859Z,69.20
2017-12-19T11:33:37.459Z,69.90
2017-12-19T11:36:05.719Z,69.50
2017-12-19T11:38:34.130Z,69.40
2017-12-19T11:41:02.510Z,68.40
2017-12-19T11:43:30.790Z,69.10
2017-12-19T11:46:00.071Z,68.90
2017-12-19T11:48:28.450Z,68.90
2017-12-19T11:50:56.670Z,68.30
2017-12-19T11:53:25.005Z,69.40
2017-12-19T11:55:53.532Z,68.40
2017-12-19T11:58:21.790Z,68.20
2017-12-19T12:00:51.075Z,67.70
2017-12-19T12:03:19.952Z,67.60
2017-12-19T12:05:48.110Z,67.60
2017-12-19T12:08:16.410Z,67.30
2017-12-19T12:10:44.670Z,66.80
2017-12-19T12:13:13.571Z,67.40
2017-12-19T12:15:42.033Z,67.50
2017-12-19T12:18:10.430Z,67.80
2017-12-19T12:20:38.610Z,68.50
2017-12-19T12:23:07.111Z,68.40
2017-12-19T12:25:36.311Z,68.30
2017-12-19T12:28:04.570Z,68.30
2017-12-19T12:30:34.010Z,67.20
2017-12-19T12:33:02.630Z,67.20
2017-12-19T12:35:32.553Z,66.60
2017-12-19T12:38:01.087Z,66.60
2017-12-19T12:40:30.393Z,66.30
2017-12-19T12:42:58.790Z,66.30
2017-12-19T12:45:27.110Z,66.50
2017-12-19T12:47:57.050Z,66.90
2017-12-19T12:50:25.272Z,66.90
2017-12-19T12:52:53.489Z,66.70
2017-12-19T12:55:21.530Z,66.60
2017-12-19T12:57:50.110Z,66.60
2017-12-19T13:00:18.491Z,67.70
2017-12-19T13:02:47.650Z,65.90
2017-12-19T13:05:16.408Z,65.70
2017-12-19T13:07:44.630Z,65.30
2017-12-19T13:10:13.193Z,65.20
2017-12-19T13:12:41.693Z,66.50
2017-12-19T13:15:10.283Z,66.20
2017-12-19T13:17:39.493Z,66.60
2017-12-19T13:20:08.877Z,66.30
2017-12-19T13:22:37.233Z,66.10
2017-12-19T13:25:05.748Z,66.30
2017-12-19T13:27:34.148Z,66.40
2017-12-19T13:30:03.321Z,67.00
2017-12-19T13:32:31.795Z,66.40
2017-12-19T13:35:00.064Z,66.60
2017-12-19T13:37:28.856Z,66.00
2017-12-19T13:39:57.133Z,66.00
2017-12-19T13:42:25.314Z,66.00
2017-12-19T13:44:54.492Z,66.70
2017-12-19T13:47:23.099Z,66.00
2017-12-19T13:49:52.273Z,65.00
2017-12-19T13:52:20.893Z,65.00
2017-12-19T13:54:50.373Z,65.70
2017-12-19T13:57:18.953Z,65.70
2017-12-19T13:59:47.395Z,66.20
2017-12-19T14:02:16.234Z,66.00
2017-12-19T14:04:45.493Z,65.20
2017-12-19T14:07:14.013Z,65.10
2017-12-19T14:09:43.093Z,65.50
2017-12-19T14:12:11.133Z,65.50
2017-12-19T14:14:39.673Z,65.60
2017-12-19T14:17:08.633Z,67.10
2017-12-19T14:19:37.213Z,67.70
2017-12-19T14:22:05.593Z,66.80
2017-12-19T14:24:33.953Z,66.90
2017-12-19T14:27:02.373Z,67.00
2017-12-19T14:29:32.013Z,67.10
2017-12-19T14:32:00.333Z,67.10
2017-12-19T14:34:29.533Z,66.80
2017-12-19T14:36:57.814Z,66.00
2017-12-19T14:39:25.974Z,65.90
2017-12-19T14:41:54.153Z,66.50
2017-12-19T14:44:22.326Z,65.90
2017-12-19T14:46:50.714Z,66.00
2017-12-19T14:49:18.875Z,66.60
2017-12-19T14:51:47.353Z,67.10
2017-12-19T14:54:15.633Z,67.60
2017-12-19T14:56:44.113Z,68.20
2017-12-19T14:59:12.294Z,68.60
2017-12-19T15:01:41.234Z,68.70
2017-12-19T15:04:09.673Z,68.70
2017-12-19T15:06:38.713Z,68.60
2017-12-19T15:09:07.034Z,68.70
2017-12-19T15:11:35.393Z,68.70
2017-12-19T15:14:03.857Z,68.30
2017-12-19T15:16:32.473Z,68.70
2017-12-19T15:19:00.813Z,69.00
2017-12-19T15:21:29.073Z,69.10
2017-12-19T15:23:57.693Z,69.20
2017-12-19T15:26:25.753Z,69.90
2017-12-19T15:28:54.193Z,69.30
2017-12-19T15:31:22.833Z,69.70
2017-12-19T15:33:51.246Z,69.50
2017-12-19T15:36:20.489Z,68.90
2017-12-19T15:38:48.987Z,68.90
2017-12-19T15:41:17.447Z,69.70
2017-12-19T15:43:45.877Z,69.60
2017-12-19T15:46:14.946Z,70.00
2017-12-19T15:48:43.326Z,70.00
2017-12-19T15:51:11.706Z,69.30
2017-12-19T15:53:40.167Z,69.20
2017-12-19T15:56:08.546Z,69.80
2017-12-19T15:58:36.806Z,69.40
2017-12-19T16:01:05.176Z,70.20
2017-12-19T16:03:33.786Z,70.30
2017-12-19T16:06:02.166Z,69.80
2017-12-19T16:08:30.466Z,70.40
2017-12-19T16:10:59.908Z,69.70
2017-12-19T16:13:28.126Z,69.70
2017-12-19T16:15:56.486Z,69.60
2017-12-19T16:18:24.786Z,70.00
2017-12-19T16:20:53.467Z,69.80
2017-12-19T16:23:22.148Z,70.50
2017-12-19T16:25:50.327Z,70.80
2017-12-19T16:28:18.386Z,70.00
2017-12-19T16:30:47.286Z,69.80
2017-12-19T16:33:15.546Z,69.80
2017-12-19T16:35:43.727Z,69.90
2017-12-19T16:38:12.007Z,69.90
2017-12-19T16:40:41.586Z,69.90
2017-12-19T16:43:10.147Z,69.80
2017-12-19T16:45:38.472Z,69.30
2017-12-19T16:48:06.853Z,69.70
2017-12-19T16:50:35.312Z,69.50
2017-12-19T16:53:03.672Z,70.10
2017-12-19T16:55:31.972Z,69.90
2017-12-19T16:58:00.272Z,69.60
2017-12-19T17:00:29.235Z,69.10
2017-12-19T17:02:58.069Z,69.10
2017-12-19T17:05:27.509Z,69.90
2017-12-19T17:07:55.806Z,69.90
2017-12-19T17:10:23.879Z,69.40
2017-12-19T17:12:52.609Z,70.10
2017-12-19T17:15:21.169Z,70.30
2017-12-19T17:17:50.448Z,70.50
2017-12-19T17:20:19.042Z,70.50
2017-12-19T17:22:47.281Z,70.70
2017-12-19T17:25:15.821Z,69.90
2017-12-19T17:27:45.081Z,70.10
2017-12-19T17:30:13.461Z,70.10
2017-12-19T17:32:41.782Z,70.40
2017-12-19T17:35:10.328Z,70.40
2017-12-19T17:37:38.802Z,70.40
2017-12-19T17:40:07.061Z,70.20
2017-12-19T17:42:35.499Z,70.40
2017-12-19T17:45:03.736Z,70.50
2017-12-19T17:47:31.851Z,70.70
2017-12-19T17:49:59.968Z,70.50
2017-12-19T17:52:28.258Z,70.90
2017-12-19T17:54:56.739Z,70.60
2017-12-19T17:57:24.919Z,70.80
2017-12-19T17:59:53.497Z,70.60
2017-12-19T18:02:22.797Z,70.10
2017-12-19T18:04:51.176Z,70.40
2017-12-19T18:07:19.759Z,70.60
2017-12-19T18:09:48.877Z,70.60
2017-12-19T18:12:17.939Z,70.40
2017-12-19T18:14:46.214Z,70.40
2017-12-19T18:17:14.692Z,70.70
2017-12-19T18:19:43.277Z,70.60
2017-12-19T18:22:11.857Z,70.50
2017-12-19T18:24:40.557Z,70.60
2017-12-19T18:27:09.637Z,70.50
2017-12-19T18:29:38.737Z,70.40
2017-12-19T18:32:07.197Z,70.50
2017-12-19T18:34:35.397Z,70.40
2017-12-19T18:37:04.458Z,70.40
2017-12-19T18:39:32.959Z,70.50
2017-12-19T18:42:01.848Z,70.60
2017-12-19T18:44:30.012Z,70.60
2017-12-19T18:46:58.389Z,71.00
2017-12-19T18:49:26.791Z,70.90
2017-12-19T18:51:55.168Z,70.50
2017-12-19T18:54:23.328Z,70.50
2017-12-19T18:56:52.348Z,71.00
2017-12-19T18:59:21.228Z,71.10
2017-12-19T19:01:50.409Z,70.70
2017-12-19T19:04:19.608Z,71.00
2017-12-19T19:06:48.716Z,70.90
2017-12-19T19:09:17.908Z,71.30
2017-12-19T19:11:46.168Z,71.30
2017-12-19T19:14:14.348Z,70.90
2017-12-19T19:16:42.628Z,70.60
2017-12-19T19:19:10.848Z,70.90
2017-12-19T19:21:40.187Z,70.50
2017-12-19T19:24:08.808Z,70.50
2017-12-19T19:26:38.208Z,70.20
2017-12-19T19:29:07.410Z,70.30
2017-12-19T19:31:36.808Z,70.40
2017-12-19T19:34:06.168Z,70.50
2017-12-19T19:36:34.768Z,70.50
2017-12-19T19:39:03.328Z,70.50
2017-12-19T19:41:31.728Z,70.50
2017-12-19T19:44:00.208Z,70.60
2017-12-19T19:46:28.708Z,70.70
2017-12-19T19:48:58.168Z,70.30
2017-12-19T19:51:26.448Z,70.20
2017-12-19T19:53:54.968Z,69.80
2017-12-19T19:56:24.228Z,69.80
2017-12-19T19:58:52.749Z,69.80
2017-12-19T20:01:22.029Z,69.60
2017-12-19T20:03:50.588Z,69.50
2017-12-19T20:06:19.268Z,69.50
2017-12-19T20:08:47.868Z,69.30
2017-12-19T20:11:16.588Z,69.40
2017-12-19T20:13:46.067Z,69.50
2017-12-19T20:16:15.669Z,69.60
2017-12-19T20:18:44.368Z,69.60
2017-12-19T20:21:12.888Z,69.60
2017-12-19T20:23:41.669Z,69.90
2017-12-19T20:26:09.788Z,70.10
2017-12-19T20:28:38.314Z,70.20
2017-12-19T20:31:07.271Z,70.70
2017-12-19T20:33:35.738Z,70.80
2017-12-19T20:36:04.196Z,70.60
2017-12-19T20:38:32.836Z,70.40
2017-12-19T20:41:02.096Z,71.60
2017-12-19T20:43:30.536Z,71.50
2017-12-19T20:45:59.177Z,71.30
2017-12-19T20:48:27.557Z,71.40
2017-12-19T20:50:56.237Z,71.60
2017-12-19T20:53:24.637Z,72.10
2017-12-19T20:55:53.896Z,72.60
2017-12-19T20:58:22.417Z,72.50
2017-12-19T21:00:51.376Z,72.40
2017-12-19T21:03:19.516Z,72.50
2017-12-19T21:05:47.917Z,72.20
2017-12-19T21:08:16.118Z,72.20
2017-12-19T21:10:44.376Z,72.40
2017-12-19T21:13:12.896Z,72.40
2017-12-19T21:15:41.356Z,72.60
2017-12-19T21:18:11.017Z,71.90
2017-12-19T21:20:39.057Z,71.90
2017-12-19T21:23:08.117Z,71.80
2017-12-19T21:25:36.497Z,71.80
2017-12-19T21:28:05.896Z,72.30
2017-12-19T21:30:34.295Z,72.30
2017-12-19T21:33:03.716Z,71.50
2017-12-19T21:35:32.376Z,71.40
2017-12-19T21:38:01.556Z,71.30
2017-12-19T21:40:30.036Z,71.40
2017-12-19T21:42:58.715Z,71.40
2017-12-19T21:45:27.216Z,71.40
2017-12-19T21:47:55.696Z,71.60
2017-12-19T21:50:25.095Z,71.80
2017-12-19T21:52:53.356Z,71.70
2017-12-19T21:55:21.956Z,72.00
2017-12-19T21:57:51.336Z,71.90
2017-12-19T22:00:19.416Z,71.90
2017-12-19T22:02:47.895Z,72.00
2017-12-19T22:05:16.177Z,71.90
2017-12-19T22:07:44.656Z,72.30
2017-12-19T22:10:12.918Z,71.80
2017-12-19T22:12:41.339Z,71.80
2017-12-19T22:15:09.564Z,71.70
2017-12-19T22:17:37.744Z,72.00
2017-12-19T22:20:06.185Z,71.90
2017-12-19T22:22:34.325Z,72.00
2017-12-19T22:25:03.485Z,71.90
2017-12-19T22:27:31.985Z,71.90
2017-12-19T22:30:00.045Z,72.20
2017-12-19T22:32:28.224Z,71.90
2017-12-19T22:34:56.806Z,72.40
2017-12-19T22:37:25.586Z,72.70
2017-12-19T22:39:54.125Z,72.70
2017-12-19T22:42:22.606Z,72.80
2017-12-19T22:44:51.026Z,72.80
2017-12-19T22:47:19.384Z,72.60
2017-12-19T22:49:48.005Z,72.70
2017-12-19T22:52:16.165Z,72.40
2017-12-19T22:54:44.572Z,73.20
2017-12-19T22:57:14.245Z,72.70
2017-12-19T22:59:42.525Z,72.70
2017-12-19T23:02:11.245Z,72.70
2017-12-19T23:04:40.624Z,72.90
2017-12-19T23:07:10.625Z,73.00
2017-12-19T23:09:39.524Z,73.20
2017-12-19T23:12:07.904Z,73.20
2017-12-19T23:14:36.065Z,73.30
2017-12-19T23:17:04.444Z,73.30
2017-12-19T23:19:32.924Z,73.30
2017-12-19T23:22:01.485Z,73.10
2017-12-19T23:24:30.665Z,73.00
2017-12-19T23:26:58.991Z,73.10
2017-12-19T23:29:27.144Z,73.70
2017-12-19T23:31:55.224Z,73.30
2017-12-19T23:34:23.605Z,73.50
2017-12-19T23:36:52.045Z,73.40
2017-12-19T23:39:20.164Z,73.30
2017-12-19T23:41:48.425Z,73.10
2017-12-19T23:44:16.608Z,72.90
2017-12-19T23:46:45.085Z,73.00
2017-12-19T23:49:13.365Z,73.40
2017-12-19T23:51:41.446Z,73.40
2017-12-19T23:54:10.365Z,73.60
2017-12-19T23:56:38.686Z,73.50
2017-12-19T23:59:07.165Z,73.60
